Terminal Aerodrome Forecast
Issued by NWS Dodge City, KS

Home | Current Version | Previous Version | Text Only | Print | Product List | Glossary On
Versions: 1 2 3 4 5 6 7 8 9 10 11 12 13 14 15 16 17 18 19 20 21 22 23 24 25 26 27 28 29 30 31
578
FTUS43 KDDC 291132
TAFDDC
TAF
KDDC 291132Z 2912/3012 VRB03KT P6SM VCTS BKN100CB
     FM292100 15009KT P6SM BKN060 PROB30 2921/2923 4SM -TSRA
      OVC040CB=

USA.gov is the U.S. government's official web portal to all federal, state and local government web resources and services.